sensor_id;sensor_type;location;lat;lon;timestamp;P1;durP1;ratioP1;P2;durP2;ratioP2
46751;SDS011;32497;48.936;9.270;2023-09-19T00:01:14;0.50;;;0.30;;
46751;SDS011;32497;48.936;9.270;2023-09-19T00:06:15;0.35;;;0.20;;
46751;SDS011;32497;48.936;9.270;2023-09-19T00:11:17;0.22;;;0.10;;
46751;SDS011;32497;48.936;9.270;2023-09-19T00:16:19;0.73;;;0.40;;
46751;SDS011;32497;48.936;9.270;2023-09-19T00:21:20;0.35;;;0.20;;
46751;SDS011;32497;48.936;9.270;2023-09-19T00:26:22;0.40;;;0.20;;
46751;SDS011;32497;48.936;9.270;2023-09-19T00:31:24;0.70;;;0.40;;
46751;SDS011;32497;48.936;9.270;2023-09-19T00:36:25;1.10;;;0.30;;
46751;SDS011;32497;48.936;9.270;2023-09-19T00:41:27;0.55;;;0.40;;
46751;SDS011;32497;48.936;9.270;2023-09-19T00:46:28;0.68;;;0.30;;
46751;SDS011;32497;48.936;9.270;2023-09-19T00:51:30;0.57;;;0.30;;
46751;SDS011;32497;48.936;9.270;2023-09-19T00:56:32;0.93;;;0.30;;
46751;SDS011;32497;48.936;9.270;2023-09-19T01:01:33;0.85;;;0.30;;
46751;SDS011;32497;48.936;9.270;2023-09-19T01:06:37;0.50;;;0.30;;
46751;SDS011;32497;48.936;9.270;2023-09-19T01:11:40;1.58;;;0.52;;
46751;SDS011;32497;48.936;9.270;2023-09-19T01:16:48;1.08;;;0.30;;
46751;SDS011;32497;48.936;9.270;2023-09-19T01:21:57;0.60;;;0.32;;
46751;SDS011;32497;48.936;9.270;2023-09-19T01:32:40;2.47;;;0.40;;
46751;SDS011;32497;48.936;9.270;2023-09-19T01:37:42;0.73;;;0.30;;
46751;SDS011;32497;48.936;9.270;2023-09-19T01:42:45;2.85;;;0.40;;
46751;SDS011;32497;48.936;9.270;2023-09-19T01:47:52;0.32;;;0.20;;
46751;SDS011;32497;48.936;9.270;2023-09-19T01:52:56;0.40;;;0.20;;
46751;SDS011;32497;48.936;9.270;2023-09-19T01:58:01;0.50;;;0.30;;
46751;SDS011;32497;48.936;9.270;2023-09-19T02:03:08;0.75;;;0.32;;
46751;SDS011;32497;48.936;9.270;2023-09-19T02:08:09;0.43;;;0.20;;
46751;SDS011;32497;48.936;9.270;2023-09-19T02:13:11;1.15;;;0.15;;
46751;SDS011;32497;48.936;9.270;2023-09-19T02:18:14;1.95;;;0.40;;
46751;SDS011;32497;48.936;9.270;2023-09-19T02:23:16;0.57;;;0.30;;
46751;SDS011;32497;48.936;9.270;2023-09-19T02:28:17;0.30;;;0.10;;
46751;SDS011;32497;48.936;9.270;2023-09-19T02:33:20;2.22;;;0.28;;
46751;SDS011;32497;48.936;9.270;2023-09-19T02:38:21;0.30;;;0.20;;
46751;SDS011;32497;48.936;9.270;2023-09-19T02:43:23;0.70;;;0.20;;
46751;SDS011;32497;48.936;9.270;2023-09-19T02:48:26;1.52;;;0.30;;
46751;SDS011;32497;48.936;9.270;2023-09-19T02:53:27;2.22;;;0.22;;
46751;SDS011;32497;48.936;9.270;2023-09-19T02:58:28;0.30;;;0.30;;
46751;SDS011;32497;48.936;9.270;2023-09-19T03:03:31;0.55;;;0.30;;
46751;SDS011;32497;48.936;9.270;2023-09-19T03:08:33;0.35;;;0.25;;
46751;SDS011;32497;48.936;9.270;2023-09-19T03:13:34;1.02;;;0.30;;
46751;SDS011;32497;48.936;9.270;2023-09-19T03:18:38;1.15;;;0.30;;
46751;SDS011;32497;48.936;9.270;2023-09-19T03:23:39;0.52;;;0.35;;
46751;SDS011;32497;48.936;9.270;2023-09-19T03:28:40;0.52;;;0.20;;
46751;SDS011;32497;48.936;9.270;2023-09-19T03:33:44;1.17;;;0.35;;
46751;SDS011;32497;48.936;9.270;2023-09-19T03:38:45;1.50;;;0.28;;
46751;SDS011;32497;48.936;9.270;2023-09-19T03:43:46;1.33;;;0.60;;
46751;SDS011;32497;48.936;9.270;2023-09-19T03:48:49;2.50;;;0.30;;
46751;SDS011;32497;48.936;9.270;2023-09-19T03:53:50;0.50;;;0.30;;
46751;SDS011;32497;48.936;9.270;2023-09-19T03:58:51;0.35;;;0.25;;
46751;SDS011;32497;48.936;9.270;2023-09-19T04:03:54;0.68;;;0.30;;
46751;SDS011;32497;48.936;9.270;2023-09-19T04:08:55;1.23;;;0.57;;
46751;SDS011;32497;48.936;9.270;2023-09-19T04:13:56;0.45;;;0.30;;
46751;SDS011;32497;48.936;9.270;2023-09-19T04:18:58;0.68;;;0.30;;
46751;SDS011;32497;48.936;9.270;2023-09-19T04:24:00;1.40;;;0.30;;
46751;SDS011;32497;48.936;9.270;2023-09-19T04:29:01;0.50;;;0.25;;
46751;SDS011;32497;48.936;9.270;2023-09-19T04:34:03;0.60;;;0.30;;
46751;SDS011;32497;48.936;9.270;2023-09-19T04:39:05;1.95;;;0.43;;
46751;SDS011;32497;48.936;9.270;2023-09-19T04:44:06;0.65;;;0.40;;
46751;SDS011;32497;48.936;9.270;2023-09-19T04:49:09;0.70;;;0.30;;
46751;SDS011;32497;48.936;9.270;2023-09-19T04:54:10;1.65;;;0.50;;
46751;SDS011;32497;48.936;9.270;2023-09-19T04:59:11;0.68;;;0.40;;
46751;SDS011;32497;48.936;9.270;2023-09-19T05:04:13;1.00;;;0.40;;
46751;SDS011;32497;48.936;9.270;2023-09-19T05:09:14;0.63;;;0.40;;
46751;SDS011;32497;48.936;9.270;2023-09-19T05:14:16;1.45;;;0.68;;
46751;SDS011;32497;48.936;9.270;2023-09-19T05:19:18;1.33;;;0.60;;
46751;SDS011;32497;48.936;9.270;2023-09-19T05:24:19;1.13;;;0.82;;
46751;SDS011;32497;48.936;9.270;2023-09-19T05:29:20;0.85;;;0.70;;
46751;SDS011;32497;48.936;9.270;2023-09-19T05:34:23;2.22;;;0.80;;
46751;SDS011;32497;48.936;9.270;2023-09-19T05:39:24;1.10;;;0.77;;
46751;SDS011;32497;48.936;9.270;2023-09-19T05:44:25;2.50;;;0.60;;
46751;SDS011;32497;48.936;9.270;2023-09-19T05:49:28;1.07;;;0.50;;
46751;SDS011;32497;48.936;9.270;2023-09-19T05:54:29;1.13;;;0.67;;
46751;SDS011;32497;48.936;9.270;2023-09-19T05:59:30;0.87;;;0.67;;
46751;SDS011;32497;48.936;9.270;2023-09-19T06:04:32;1.63;;;0.70;;
46751;SDS011;32497;48.936;9.270;2023-09-19T06:09:33;2.50;;;0.70;;
46751;SDS011;32497;48.936;9.270;2023-09-19T06:14:35;3.20;;;0.80;;
46751;SDS011;32497;48.936;9.270;2023-09-19T06:19:37;3.10;;;0.83;;
46751;SDS011;32497;48.936;9.270;2023-09-19T06:24:38;1.25;;;0.65;;
46751;SDS011;32497;48.936;9.270;2023-09-19T06:29:39;1.50;;;0.77;;
46751;SDS011;32497;48.936;9.270;2023-09-19T06:34:42;2.60;;;0.93;;
46751;SDS011;32497;48.936;9.270;2023-09-19T06:39:43;2.03;;;1.00;;
46751;SDS011;32497;48.936;9.270;2023-09-19T06:44:44;2.72;;;0.90;;
46751;SDS011;32497;48.936;9.270;2023-09-19T06:49:46;1.08;;;0.85;;
46751;SDS011;32497;48.936;9.270;2023-09-19T06:54:48;1.60;;;0.98;;
46751;SDS011;32497;48.936;9.270;2023-09-19T06:59:49;1.13;;;0.77;;
46751;SDS011;32497;48.936;9.270;2023-09-19T07:04:51;3.83;;;0.80;;
46751;SDS011;32497;48.936;9.270;2023-09-19T07:09:52;1.63;;;0.88;;
46751;SDS011;32497;48.936;9.270;2023-09-19T07:14:53;1.40;;;0.88;;
46751;SDS011;32497;48.936;9.270;2023-09-19T07:19:56;2.15;;;0.75;;
46751;SDS011;32497;48.936;9.270;2023-09-19T07:24:57;2.00;;;1.08;;
46751;SDS011;32497;48.936;9.270;2023-09-19T07:29:58;1.35;;;0.80;;
46751;SDS011;32497;48.936;9.270;2023-09-19T07:35:00;1.48;;;0.70;;
46751;SDS011;32497;48.936;9.270;2023-09-19T07:40:02;2.00;;;1.00;;
46751;SDS011;32497;48.936;9.270;2023-09-19T07:45:03;1.83;;;0.60;;
46751;SDS011;32497;48.936;9.270;2023-09-19T07:50:06;1.52;;;0.55;;
46751;SDS011;32497;48.936;9.270;2023-09-19T07:55:08;1.15;;;0.70;;
46751;SDS011;32497;48.936;9.270;2023-09-19T08:00:09;1.35;;;0.73;;
46751;SDS011;32497;48.936;9.270;2023-09-19T08:05:15;3.40;;;0.95;;
46751;SDS011;32497;48.936;9.270;2023-09-19T08:10:18;0.85;;;0.60;;
46751;SDS011;32497;48.936;9.270;2023-09-19T08:15:19;3.05;;;0.60;;
46751;SDS011;32497;48.936;9.270;2023-09-19T08:20:22;3.30;;;0.70;;
46751;SDS011;32497;48.936;9.270;2023-09-19T08:25:23;1.00;;;0.50;;
46751;SDS011;32497;48.936;9.270;2023-09-19T08:30:25;2.42;;;0.50;;
46751;SDS011;32497;48.936;9.270;2023-09-19T08:35:27;1.48;;;0.70;;
46751;SDS011;32497;48.936;9.270;2023-09-19T08:40:29;0.60;;;0.30;;
46751;SDS011;32497;48.936;9.270;2023-09-19T08:45:30;0.50;;;0.30;;
46751;SDS011;32497;48.936;9.270;2023-09-19T08:50:33;1.35;;;0.30;;
46751;SDS011;32497;48.936;9.270;2023-09-19T08:55:43;0.38;;;0.30;;
46751;SDS011;32497;48.936;9.270;2023-09-19T09:00:46;2.47;;;0.40;;
46751;SDS011;32497;48.936;9.270;2023-09-19T09:05:50;1.05;;;0.85;;
46751;SDS011;32497;48.936;9.270;2023-09-19T09:10:51;0.32;;;0.30;;
46751;SDS011;32497;48.936;9.270;2023-09-19T09:15:53;1.75;;;0.40;;
46751;SDS011;32497;48.936;9.270;2023-09-19T09:20:55;1.88;;;0.40;;
46751;SDS011;32497;48.936;9.270;2023-09-19T09:25:57;1.65;;;0.52;;
46751;SDS011;32497;48.936;9.270;2023-09-19T09:30:59;0.63;;;0.40;;
46751;SDS011;32497;48.936;9.270;2023-09-19T09:36:03;2.00;;;0.57;;
46751;SDS011;32497;48.936;9.270;2023-09-19T09:41:04;0.60;;;0.43;;
46751;SDS011;32497;48.936;9.270;2023-09-19T09:46:10;0.85;;;0.50;;
46751;SDS011;32497;48.936;9.270;2023-09-19T09:51:16;1.00;;;0.43;;
46751;SDS011;32497;48.936;9.270;2023-09-19T09:56:31;0.73;;;0.40;;
46751;SDS011;32497;48.936;9.270;2023-09-19T10:01:45;0.70;;;0.40;;
46751;SDS011;32497;48.936;9.270;2023-09-19T10:06:48;1.10;;;0.43;;
46751;SDS011;32497;48.936;9.270;2023-09-19T10:11:58;1.10;;;0.43;;
46751;SDS011;32497;48.936;9.270;2023-09-19T10:17:04;0.45;;;0.30;;
46751;SDS011;32497;48.936;9.270;2023-09-19T10:22:07;0.75;;;0.40;;
46751;SDS011;32497;48.936;9.270;2023-09-19T10:27:09;1.75;;;0.50;;
46751;SDS011;32497;48.936;9.270;2023-09-19T10:32:10;1.38;;;0.38;;
46751;SDS011;32497;48.936;9.270;2023-09-19T10:37:16;0.52;;;0.30;;
46751;SDS011;32497;48.936;9.270;2023-09-19T10:42:19;0.65;;;0.35;;
46751;SDS011;32497;48.936;9.270;2023-09-19T10:47:20;0.75;;;0.35;;
46751;SDS011;32497;48.936;9.270;2023-09-19T10:52:24;0.68;;;0.50;;
46751;SDS011;32497;48.936;9.270;2023-09-19T10:57:27;0.30;;;0.20;;
46751;SDS011;32497;48.936;9.270;2023-09-19T11:02:28;1.00;;;0.30;;
46751;SDS011;32497;48.936;9.270;2023-09-19T11:07:30;0.98;;;0.50;;
46751;SDS011;32497;48.936;9.270;2023-09-19T11:12:50;1.58;;;0.50;;
46751;SDS011;32497;48.936;9.270;2023-09-19T11:17:51;1.13;;;0.40;;
46751;SDS011;32497;48.936;9.270;2023-09-19T11:28:29;1.23;;;0.40;;
46751;SDS011;32497;48.936;9.270;2023-09-19T11:33:31;0.65;;;0.30;;
46751;SDS011;32497;48.936;9.270;2023-09-19T11:49:34;0.60;;;0.40;;
46751;SDS011;32497;48.936;9.270;2023-09-19T11:54:41;0.30;;;0.30;;
46751;SDS011;32497;48.936;9.270;2023-09-19T11:59:43;1.25;;;0.40;;
46751;SDS011;32497;48.936;9.270;2023-09-19T12:04:45;0.85;;;0.45;;
46751;SDS011;32497;48.936;9.270;2023-09-19T12:09:49;0.40;;;0.40;;
46751;SDS011;32497;48.936;9.270;2023-09-19T12:15:02;0.60;;;0.35;;
46751;SDS011;32497;48.936;9.270;2023-09-19T12:20:04;0.60;;;0.40;;
46751;SDS011;32497;48.936;9.270;2023-09-19T12:25:07;1.35;;;0.50;;
46751;SDS011;32497;48.936;9.270;2023-09-19T12:30:09;0.40;;;0.40;;
46751;SDS011;32497;48.936;9.270;2023-09-19T12:35:26;0.80;;;0.47;;
46751;SDS011;32497;48.936;9.270;2023-09-19T12:40:29;0.85;;;0.52;;
46751;SDS011;32497;48.936;9.270;2023-09-19T12:45:31;0.60;;;0.40;;
46751;SDS011;32497;48.936;9.270;2023-09-19T12:50:32;0.93;;;0.40;;
46751;SDS011;32497;48.936;9.270;2023-09-19T12:55:35;2.33;;;0.47;;
46751;SDS011;32497;48.936;9.270;2023-09-19T13:00:37;0.60;;;0.32;;
46751;SDS011;32497;48.936;9.270;2023-09-19T13:05:52;0.82;;;0.50;;
46751;SDS011;32497;48.936;9.270;2023-09-19T13:16:14;2.03;;;0.40;;
46751;SDS011;32497;48.936;9.270;2023-09-19T13:21:16;0.77;;;0.40;;
46751;SDS011;32497;48.936;9.270;2023-09-19T13:26:28;1.05;;;0.60;;
46751;SDS011;32497;48.936;9.270;2023-09-19T13:31:29;0.90;;;0.50;;
46751;SDS011;32497;48.936;9.270;2023-09-19T13:36:31;0.50;;;0.30;;
46751;SDS011;32497;48.936;9.270;2023-09-19T13:41:33;0.85;;;0.60;;
46751;SDS011;32497;48.936;9.270;2023-09-19T13:46:34;0.52;;;0.50;;
46751;SDS011;32497;48.936;9.270;2023-09-19T13:51:36;0.80;;;0.60;;
46751;SDS011;32497;48.936;9.270;2023-09-19T13:56:38;0.90;;;0.63;;
46751;SDS011;32497;48.936;9.270;2023-09-19T14:01:39;0.47;;;0.40;;
46751;SDS011;32497;48.936;9.270;2023-09-19T14:06:41;0.55;;;0.47;;
46751;SDS011;32497;48.936;9.270;2023-09-19T14:11:43;1.15;;;0.60;;
46751;SDS011;32497;48.936;9.270;2023-09-19T14:16:44;0.65;;;0.65;;
46751;SDS011;32497;48.936;9.270;2023-09-19T14:21:46;0.85;;;0.55;;
46751;SDS011;32497;48.936;9.270;2023-09-19T14:26:49;0.63;;;0.52;;
46751;SDS011;32497;48.936;9.270;2023-09-19T14:31:50;1.13;;;0.60;;
46751;SDS011;32497;48.936;9.270;2023-09-19T14:36:51;0.60;;;0.40;;
46751;SDS011;32497;48.936;9.270;2023-09-19T14:41:53;0.90;;;0.60;;
46751;SDS011;32497;48.936;9.270;2023-09-19T14:46:55;0.95;;;0.60;;
46751;SDS011;32497;48.936;9.270;2023-09-19T14:51:56;1.00;;;0.45;;
46751;SDS011;32497;48.936;9.270;2023-09-19T14:56:58;0.50;;;0.30;;
46751;SDS011;32497;48.936;9.270;2023-09-19T15:01:59;1.20;;;0.45;;
46751;SDS011;32497;48.936;9.270;2023-09-19T15:07:01;0.77;;;0.50;;
46751;SDS011;32497;48.936;9.270;2023-09-19T15:12:03;0.75;;;0.40;;
46751;SDS011;32497;48.936;9.270;2023-09-19T15:17:05;1.85;;;0.43;;
46751;SDS011;32497;48.936;9.270;2023-09-19T15:22:06;0.75;;;0.38;;
46751;SDS011;32497;48.936;9.270;2023-09-19T15:27:09;0.70;;;0.40;;
46751;SDS011;32497;48.936;9.270;2023-09-19T15:32:10;1.08;;;0.60;;
46751;SDS011;32497;48.936;9.270;2023-09-19T15:37:11;1.80;;;0.40;;
46751;SDS011;32497;48.936;9.270;2023-09-19T15:42:13;0.60;;;0.43;;
46751;SDS011;32497;48.936;9.270;2023-09-19T15:47:14;1.75;;;0.25;;
46751;SDS011;32497;48.936;9.270;2023-09-19T15:52:16;0.75;;;0.32;;
46751;SDS011;32497;48.936;9.270;2023-09-19T15:57:19;0.55;;;0.40;;
46751;SDS011;32497;48.936;9.270;2023-09-19T16:02:20;0.98;;;0.30;;
46751;SDS011;32497;48.936;9.270;2023-09-19T16:07:21;0.30;;;0.20;;
46751;SDS011;32497;48.936;9.270;2023-09-19T16:12:24;0.52;;;0.30;;
46751;SDS011;32497;48.936;9.270;2023-09-19T16:17:25;1.83;;;0.65;;
46751;SDS011;32497;48.936;9.270;2023-09-19T16:22:26;0.60;;;0.40;;
46751;SDS011;32497;48.936;9.270;2023-09-19T16:27:29;0.75;;;0.50;;
46751;SDS011;32497;48.936;9.270;2023-09-19T16:32:30;2.30;;;0.40;;
46751;SDS011;32497;48.936;9.270;2023-09-19T16:37:31;0.75;;;0.50;;
46751;SDS011;32497;48.936;9.270;2023-09-19T16:42:33;0.50;;;0.40;;
46751;SDS011;32497;48.936;9.270;2023-09-19T16:47:34;1.00;;;0.50;;
46751;SDS011;32497;48.936;9.270;2023-09-19T16:52:35;0.55;;;0.40;;
46751;SDS011;32497;48.936;9.270;2023-09-19T16:57:38;0.63;;;0.60;;
46751;SDS011;32497;48.936;9.270;2023-09-19T17:02:39;0.85;;;0.47;;
46751;SDS011;32497;48.936;9.270;2023-09-19T17:07:40;1.40;;;0.73;;
46751;SDS011;32497;48.936;9.270;2023-09-19T17:12:42;0.70;;;0.47;;
46751;SDS011;32497;48.936;9.270;2023-09-19T17:17:44;0.57;;;0.30;;
46751;SDS011;32497;48.936;9.270;2023-09-19T17:22:45;0.60;;;0.40;;
46751;SDS011;32497;48.936;9.270;2023-09-19T17:27:47;1.05;;;0.40;;
46751;SDS011;32497;48.936;9.270;2023-09-19T17:32:49;1.75;;;0.45;;
46751;SDS011;32497;48.936;9.270;2023-09-19T17:37:50;1.00;;;0.55;;
46751;SDS011;32497;48.936;9.270;2023-09-19T17:42:52;1.35;;;0.60;;
46751;SDS011;32497;48.936;9.270;2023-09-19T17:47:53;0.60;;;0.50;;
46751;SDS011;32497;48.936;9.270;2023-09-19T17:52:55;0.85;;;0.50;;
46751;SDS011;32497;48.936;9.270;2023-09-19T17:57:58;1.05;;;0.40;;
46751;SDS011;32497;48.936;9.270;2023-09-19T18:03:00;0.43;;;0.40;;
46751;SDS011;32497;48.936;9.270;2023-09-19T18:08:02;0.70;;;0.40;;
46751;SDS011;32497;48.936;9.270;2023-09-19T18:13:05;0.73;;;0.40;;
46751;SDS011;32497;48.936;9.270;2023-09-19T18:18:06;0.40;;;0.30;;
46751;SDS011;32497;48.936;9.270;2023-09-19T18:23:07;0.88;;;0.38;;
46751;SDS011;32497;48.936;9.270;2023-09-19T18:28:10;0.68;;;0.30;;
46751;SDS011;32497;48.936;9.270;2023-09-19T18:33:11;0.50;;;0.30;;
46751;SDS011;32497;48.936;9.270;2023-09-19T18:38:12;0.75;;;0.40;;
46751;SDS011;32497;48.936;9.270;2023-09-19T18:43:15;0.95;;;0.50;;
46751;SDS011;32497;48.936;9.270;2023-09-19T18:48:16;0.95;;;0.60;;
46751;SDS011;32497;48.936;9.270;2023-09-19T18:53:17;1.77;;;1.08;;
46751;SDS011;32497;48.936;9.270;2023-09-19T18:58:20;1.90;;;0.60;;
46751;SDS011;32497;48.936;9.270;2023-09-19T19:03:21;0.65;;;0.40;;
46751;SDS011;32497;48.936;9.270;2023-09-19T19:08:22;2.20;;;0.50;;
46751;SDS011;32497;48.936;9.270;2023-09-19T19:13:24;0.98;;;0.40;;
46751;SDS011;32497;48.936;9.270;2023-09-19T19:18:25;1.00;;;0.50;;
46751;SDS011;32497;48.936;9.270;2023-09-19T19:23:27;1.42;;;0.88;;
46751;SDS011;32497;48.936;9.270;2023-09-19T19:28:29;2.00;;;0.88;;
46751;SDS011;32497;48.936;9.270;2023-09-19T19:33:31;1.35;;;0.47;;
46751;SDS011;32497;48.936;9.270;2023-09-19T19:38:32;0.65;;;0.43;;
46751;SDS011;32497;48.936;9.270;2023-09-19T19:43:34;0.82;;;0.40;;
46751;SDS011;32497;48.936;9.270;2023-09-19T19:48:36;1.15;;;0.50;;
46751;SDS011;32497;48.936;9.270;2023-09-19T19:53:37;2.63;;;0.60;;
46751;SDS011;32497;48.936;9.270;2023-09-19T19:58:39;0.50;;;0.40;;
46751;SDS011;32497;48.936;9.270;2023-09-19T20:03:41;1.00;;;0.57;;
46751;SDS011;32497;48.936;9.270;2023-09-19T20:08:42;0.82;;;0.50;;
46751;SDS011;32497;48.936;9.270;2023-09-19T20:13:44;2.30;;;0.50;;
46751;SDS011;32497;48.936;9.270;2023-09-19T20:18:45;1.10;;;0.40;;
46751;SDS011;32497;48.936;9.270;2023-09-19T20:23:46;1.00;;;0.40;;
46751;SDS011;32497;48.936;9.270;2023-09-19T20:28:49;1.27;;;0.47;;
46751;SDS011;32497;48.936;9.270;2023-09-19T20:33:50;0.70;;;0.50;;
46751;SDS011;32497;48.936;9.270;2023-09-19T20:38:51;0.70;;;0.50;;
46751;SDS011;32497;48.936;9.270;2023-09-19T20:43:54;1.05;;;0.50;;
46751;SDS011;32497;48.936;9.270;2023-09-19T20:48:55;0.93;;;0.75;;
46751;SDS011;32497;48.936;9.270;2023-09-19T20:53:56;0.88;;;0.50;;
46751;SDS011;32497;48.936;9.270;2023-09-19T20:58:58;1.00;;;0.52;;
46751;SDS011;32497;48.936;9.270;2023-09-19T21:04:00;0.95;;;0.70;;
46751;SDS011;32497;48.936;9.270;2023-09-19T21:09:01;1.75;;;0.63;;
46751;SDS011;32497;48.936;9.270;2023-09-19T21:14:03;1.20;;;0.60;;
46751;SDS011;32497;48.936;9.270;2023-09-19T21:19:04;1.02;;;0.63;;
46751;SDS011;32497;48.936;9.270;2023-09-19T21:24:06;1.40;;;0.80;;
46751;SDS011;32497;48.936;9.270;2023-09-19T21:29:09;1.48;;;0.65;;
46751;SDS011;32497;48.936;9.270;2023-09-19T21:34:10;2.85;;;0.73;;
46751;SDS011;32497;48.936;9.270;2023-09-19T21:39:11;1.10;;;0.60;;
46751;SDS011;32497;48.936;9.270;2023-09-19T21:44:13;1.35;;;0.60;;
46751;SDS011;32497;48.936;9.270;2023-09-19T21:49:14;1.10;;;0.60;;
46751;SDS011;32497;48.936;9.270;2023-09-19T21:54:15;2.10;;;0.95;;
46751;SDS011;32497;48.936;9.270;2023-09-19T21:59:18;1.55;;;0.60;;
46751;SDS011;32497;48.936;9.270;2023-09-19T22:04:19;1.98;;;0.85;;
46751;SDS011;32497;48.936;9.270;2023-09-19T22:09:20;1.25;;;0.52;;
46751;SDS011;32497;48.936;9.270;2023-09-19T22:14:23;3.70;;;0.80;;
46751;SDS011;32497;48.936;9.270;2023-09-19T22:19:24;0.82;;;0.43;;
46751;SDS011;32497;48.936;9.270;2023-09-19T22:24:25;1.30;;;0.68;;
46751;SDS011;32497;48.936;9.270;2023-09-19T22:29:27;1.33;;;0.73;;
46751;SDS011;32497;48.936;9.270;2023-09-19T22:34:28;2.08;;;0.90;;
46751;SDS011;32497;48.936;9.270;2023-09-19T22:39:29;2.85;;;0.90;;
46751;SDS011;32497;48.936;9.270;2023-09-19T22:44:32;2.40;;;0.85;;
46751;SDS011;32497;48.936;9.270;2023-09-19T22:49:33;1.48;;;0.80;;
46751;SDS011;32497;48.936;9.270;2023-09-19T22:54:34;1.48;;;0.60;;
46751;SDS011;32497;48.936;9.270;2023-09-19T22:59:37;2.00;;;0.77;;
46751;SDS011;32497;48.936;9.270;2023-09-19T23:04:38;1.30;;;0.90;;
46751;SDS011;32497;48.936;9.270;2023-09-19T23:09:39;1.48;;;0.60;;
46751;SDS011;32497;48.936;9.270;2023-09-19T23:14:41;2.72;;;0.77;;
46751;SDS011;32497;48.936;9.270;2023-09-19T23:19:43;2.42;;;0.88;;
46751;SDS011;32497;48.936;9.270;2023-09-19T23:24:45;1.25;;;0.60;;
46751;SDS011;32497;48.936;9.270;2023-09-19T23:29:48;1.35;;;0.88;;
46751;SDS011;32497;48.936;9.270;2023-09-19T23:34:49;1.20;;;0.60;;
46751;SDS011;32497;48.936;9.270;2023-09-19T23:39:50;1.13;;;0.60;;
46751;SDS011;32497;48.936;9.270;2023-09-19T23:44:52;2.85;;;0.90;;
46751;SDS011;32497;48.936;9.270;2023-09-19T23:49:53;1.48;;;0.80;;
46751;SDS011;32497;48.936;9.270;2023-09-19T23:54:54;1.65;;;0.80;;
46751;SDS011;32497;48.936;9.270;2023-09-19T23:59:57;1.80;;;0.80;;
